sensor_id;sensor_type;location;lat;lon;timestamp;P1;durP1;ratioP1;P2;durP2;ratioP2
71046;SDS011;58703;48.978;8.982;2024-02-23T03:32:13;1.70;;;0.20;;
71046;SDS011;58703;48.978;8.982;2024-02-23T03:34:43;0.38;;;0.13;;
71046;SDS011;58703;48.978;8.982;2024-02-23T03:37:09;1.30;;;0.43;;
71046;SDS011;58703;48.978;8.982;2024-02-23T03:39:36;0.65;;;0.13;;
71046;SDS011;58703;48.978;8.982;2024-02-23T03:42:04;3.17;;;0.30;;
71046;SDS011;58703;48.978;8.982;2024-02-23T03:44:32;0.38;;;0.20;;
71046;SDS011;58703;48.978;8.982;2024-02-23T03:46:59;0.77;;;0.23;;
71046;SDS011;58703;48.978;8.982;2024-02-23T03:49:26;0.73;;;0.20;;
71046;SDS011;58703;48.978;8.982;2024-02-23T03:51:52;2.03;;;0.40;;
71046;SDS011;58703;48.978;8.982;2024-02-23T03:54:19;1.83;;;0.40;;
71046;SDS011;58703;48.978;8.982;2024-02-23T03:56:47;1.73;;;0.40;;
71046;SDS011;58703;48.978;8.982;2024-02-23T03:59:14;1.57;;;0.20;;
71046;SDS011;58703;48.978;8.982;2024-02-23T04:01:42;1.02;;;0.50;;
71046;SDS011;58703;48.978;8.982;2024-02-23T04:04:09;1.55;;;0.30;;
71046;SDS011;58703;48.978;8.982;2024-02-23T04:06:36;3.60;;;0.77;;
71046;SDS011;58703;48.978;8.982;2024-02-23T04:09:02;2.67;;;0.10;;
71046;SDS011;58703;48.978;8.982;2024-02-23T04:11:32;2.20;;;0.13;;
71046;SDS011;58703;48.978;8.982;2024-02-23T04:14:00;1.55;;;0.10;;
71046;SDS011;58703;48.978;8.982;2024-02-23T04:16:27;1.17;;;0.40;;
71046;SDS011;58703;48.978;8.982;2024-02-23T04:18:55;1.95;;;0.63;;
71046;SDS011;58703;48.978;8.982;2024-02-23T04:21:22;1.52;;;0.80;;
71046;SDS011;58703;48.978;8.982;2024-02-23T04:23:50;3.07;;;0.30;;
71046;SDS011;58703;48.978;8.982;2024-02-23T04:26:16;0.55;;;0.20;;
71046;SDS011;58703;48.978;8.982;2024-02-23T04:28:42;2.72;;;0.50;;
71046;SDS011;58703;48.978;8.982;2024-02-23T04:31:09;2.53;;;0.30;;
71046;SDS011;58703;48.978;8.982;2024-02-23T04:33:37;3.90;;;0.30;;
71046;SDS011;58703;48.978;8.982;2024-02-23T04:36:03;3.00;;;0.63;;
71046;SDS011;58703;48.978;8.982;2024-02-23T04:38:30;2.55;;;0.20;;
71046;SDS011;58703;48.978;8.982;2024-02-23T04:40:57;4.00;;;0.93;;
71046;SDS011;58703;48.978;8.982;2024-02-23T04:43:25;1.20;;;0.20;;
71046;SDS011;58703;48.978;8.982;2024-02-23T04:45:50;3.10;;;0.35;;
71046;SDS011;58703;48.978;8.982;2024-02-23T04:48:18;1.38;;;0.28;;
71046;SDS011;58703;48.978;8.982;2024-02-23T04:50:45;4.60;;;0.47;;
71046;SDS011;58703;48.978;8.982;2024-02-23T04:53:13;2.63;;;0.32;;
71046;SDS011;58703;48.978;8.982;2024-02-23T04:55:38;1.50;;;0.20;;
71046;SDS011;58703;48.978;8.982;2024-02-23T04:58:05;1.05;;;0.20;;
71046;SDS011;58703;48.978;8.982;2024-02-23T05:00:32;1.65;;;0.20;;
71046;SDS011;58703;48.978;8.982;2024-02-23T05:03:00;0.80;;;0.27;;
71046;SDS011;58703;48.978;8.982;2024-02-23T05:05:30;4.22;;;0.22;;
71046;SDS011;58703;48.978;8.982;2024-02-23T05:07:57;1.35;;;0.20;;
71046;SDS011;58703;48.978;8.982;2024-02-23T05:10:24;1.98;;;0.32;;
71046;SDS011;58703;48.978;8.982;2024-02-23T05:12:51;2.95;;;0.30;;
71046;SDS011;58703;48.978;8.982;2024-02-23T05:15:18;3.07;;;0.43;;
71046;SDS011;58703;48.978;8.982;2024-02-23T05:17:45;1.15;;;0.30;;
71046;SDS011;58703;48.978;8.982;2024-02-23T05:20:13;2.95;;;0.57;;
71046;SDS011;58703;48.978;8.982;2024-02-23T05:22:41;1.10;;;0.35;;
71046;SDS011;58703;48.978;8.982;2024-02-23T05:25:08;3.03;;;1.42;;
71046;SDS011;58703;48.978;8.982;2024-02-23T05:27:35;1.40;;;0.30;;
71046;SDS011;58703;48.978;8.982;2024-02-23T05:30:02;1.92;;;0.10;;
71046;SDS011;58703;48.978;8.982;2024-02-23T05:32:29;1.60;;;0.45;;
71046;SDS011;58703;48.978;8.982;2024-02-23T05:34:55;1.58;;;0.22;;
71046;SDS011;58703;48.978;8.982;2024-02-23T05:37:23;0.70;;;0.35;;
71046;SDS011;58703;48.978;8.982;2024-02-23T05:39:50;1.93;;;0.30;;
71046;SDS011;58703;48.978;8.982;2024-02-23T05:42:16;0.70;;;0.08;;
71046;SDS011;58703;48.978;8.982;2024-02-23T05:44:44;3.53;;;0.50;;
71046;SDS011;58703;48.978;8.982;2024-02-23T05:47:11;2.35;;;0.68;;
71046;SDS011;58703;48.978;8.982;2024-02-23T05:49:40;3.05;;;0.52;;
71046;SDS011;58703;48.978;8.982;2024-02-23T05:52:07;1.63;;;0.20;;
71046;SDS011;58703;48.978;8.982;2024-02-23T05:54:34;2.78;;;0.40;;
71046;SDS011;58703;48.978;8.982;2024-02-23T05:57:00;2.88;;;0.52;;
71046;SDS011;58703;48.978;8.982;2024-02-23T05:59:29;1.95;;;0.35;;
71046;SDS011;58703;48.978;8.982;2024-02-23T06:01:58;4.15;;;1.60;;
71046;SDS011;58703;48.978;8.982;2024-02-23T06:04:24;1.37;;;0.67;;
71046;SDS011;58703;48.978;8.982;2024-02-23T06:06:51;1.77;;;1.17;;
71046;SDS011;58703;48.978;8.982;2024-02-23T06:09:18;1.58;;;1.08;;
71046;SDS011;58703;48.978;8.982;2024-02-23T06:11:45;1.80;;;0.95;;
71046;SDS011;58703;48.978;8.982;2024-02-23T06:14:12;2.38;;;1.15;;
71046;SDS011;58703;48.978;8.982;2024-02-23T06:16:39;4.07;;;1.53;;
71046;SDS011;58703;48.978;8.982;2024-02-23T06:19:05;2.33;;;0.70;;
71046;SDS011;58703;48.978;8.982;2024-02-23T06:21:32;3.70;;;1.15;;
71046;SDS011;58703;48.978;8.982;2024-02-23T06:23:59;2.08;;;1.02;;
71046;SDS011;58703;48.978;8.982;2024-02-23T06:26:26;4.83;;;1.00;;
71046;SDS011;58703;48.978;8.982;2024-02-23T06:28:52;10.95;;;6.03;;
71046;SDS011;58703;48.978;8.982;2024-02-23T06:31:19;7.57;;;4.10;;
71046;SDS011;58703;48.978;8.982;2024-02-23T06:33:48;3.77;;;1.50;;
71046;SDS011;58703;48.978;8.982;2024-02-23T06:36:18;7.32;;;3.58;;
71046;SDS011;58703;48.978;8.982;2024-02-23T06:38:48;3.63;;;1.63;;
71046;SDS011;58703;48.978;8.982;2024-02-23T06:41:15;2.97;;;1.65;;
71046;SDS011;58703;48.978;8.982;2024-02-23T06:43:43;3.92;;;1.80;;
71046;SDS011;58703;48.978;8.982;2024-02-23T06:46:10;5.23;;;4.20;;
71046;SDS011;58703;48.978;8.982;2024-02-23T06:48:36;3.67;;;2.00;;
71046;SDS011;58703;48.978;8.982;2024-02-23T06:51:04;4.95;;;2.75;;
71046;SDS011;58703;48.978;8.982;2024-02-23T06:53:32;3.20;;;2.50;;
71046;SDS011;58703;48.978;8.982;2024-02-23T06:56:00;9.05;;;5.05;;
71046;SDS011;58703;48.978;8.982;2024-02-23T06:58:27;6.33;;;3.10;;
71046;SDS011;58703;48.978;8.982;2024-02-23T07:00:53;3.17;;;2.28;;
71046;SDS011;58703;48.978;8.982;2024-02-23T07:03:20;3.90;;;2.10;;
71046;SDS011;58703;48.978;8.982;2024-02-23T07:05:47;16.30;;;8.43;;
71046;SDS011;58703;48.978;8.982;2024-02-23T07:08:16;6.10;;;3.53;;
71046;SDS011;58703;48.978;8.982;2024-02-23T07:10:42;8.88;;;3.80;;
71046;SDS011;58703;48.978;8.982;2024-02-23T07:13:08;4.60;;;2.57;;
71046;SDS011;58703;48.978;8.982;2024-02-23T07:15:35;4.10;;;2.63;;
71046;SDS011;58703;48.978;8.982;2024-02-23T07:18:05;3.38;;;2.00;;
71046;SDS011;58703;48.978;8.982;2024-02-23T07:20:39;2.10;;;1.20;;
71046;SDS011;58703;48.978;8.982;2024-02-23T07:23:06;2.93;;;1.00;;
71046;SDS011;58703;48.978;8.982;2024-02-23T07:25:35;1.80;;;0.65;;
71046;SDS011;58703;48.978;8.982;2024-02-23T07:28:00;3.22;;;1.30;;
71046;SDS011;58703;48.978;8.982;2024-02-23T07:30:28;3.70;;;0.80;;
71046;SDS011;58703;48.978;8.982;2024-02-23T07:32:54;2.17;;;1.50;;
71046;SDS011;58703;48.978;8.982;2024-02-23T07:35:22;1.63;;;0.50;;
71046;SDS011;58703;48.978;8.982;2024-02-23T07:37:50;3.78;;;0.57;;
71046;SDS011;58703;48.978;8.982;2024-02-23T07:40:18;3.75;;;0.80;;
71046;SDS011;58703;48.978;8.982;2024-02-23T07:42:45;1.98;;;0.50;;
71046;SDS011;58703;48.978;8.982;2024-02-23T07:45:13;2.70;;;0.20;;
71046;SDS011;58703;48.978;8.982;2024-02-23T07:47:39;0.70;;;0.20;;
71046;SDS011;58703;48.978;8.982;2024-02-23T07:50:05;1.85;;;0.40;;
71046;SDS011;58703;48.978;8.982;2024-02-23T07:52:31;1.65;;;0.52;;
71046;SDS011;58703;48.978;8.982;2024-02-23T07:54:57;1.13;;;0.47;;
71046;SDS011;58703;48.978;8.982;2024-02-23T07:57:25;0.90;;;0.40;;
71046;SDS011;58703;48.978;8.982;2024-02-23T07:59:52;1.85;;;0.32;;
71046;SDS011;58703;48.978;8.982;2024-02-23T08:02:17;3.72;;;0.40;;
71046;SDS011;58703;48.978;8.982;2024-02-23T08:04:46;3.03;;;0.82;;
71046;SDS011;58703;48.978;8.982;2024-02-23T08:07:14;4.65;;;1.40;;
71046;SDS011;58703;48.978;8.982;2024-02-23T08:09:41;4.60;;;1.90;;
71046;SDS011;58703;48.978;8.982;2024-02-23T08:12:09;1.77;;;0.70;;
71046;SDS011;58703;48.978;8.982;2024-02-23T08:14:36;1.15;;;0.40;;
71046;SDS011;58703;48.978;8.982;2024-02-23T08:17:01;1.33;;;0.70;;
71046;SDS011;58703;48.978;8.982;2024-02-23T08:19:28;2.80;;;1.30;;
71046;SDS011;58703;48.978;8.982;2024-02-23T08:21:55;3.30;;;0.40;;
71046;SDS011;58703;48.978;8.982;2024-02-23T08:24:22;2.45;;;0.93;;
71046;SDS011;58703;48.978;8.982;2024-02-23T08:26:49;1.95;;;0.70;;
71046;SDS011;58703;48.978;8.982;2024-02-23T08:29:16;1.47;;;0.60;;
71046;SDS011;58703;48.978;8.982;2024-02-23T08:31:43;1.42;;;0.52;;
71046;SDS011;58703;48.978;8.982;2024-02-23T08:34:09;6.25;;;0.52;;
71046;SDS011;58703;48.978;8.982;2024-02-23T08:36:36;1.37;;;0.40;;
71046;SDS011;58703;48.978;8.982;2024-02-23T08:39:03;1.25;;;0.32;;
71046;SDS011;58703;48.978;8.982;2024-02-23T08:41:30;1.10;;;0.68;;
71046;SDS011;58703;48.978;8.982;2024-02-23T08:43:56;3.78;;;0.70;;
71046;SDS011;58703;48.978;8.982;2024-02-23T08:46:23;2.03;;;0.47;;
71046;SDS011;58703;48.978;8.982;2024-02-23T08:48:51;1.52;;;0.32;;
71046;SDS011;58703;48.978;8.982;2024-02-23T08:51:18;2.45;;;0.73;;
71046;SDS011;58703;48.978;8.982;2024-02-23T08:53:45;0.80;;;0.20;;
71046;SDS011;58703;48.978;8.982;2024-02-23T08:56:12;2.05;;;0.40;;
71046;SDS011;58703;48.978;8.982;2024-02-23T08:58:37;2.80;;;0.35;;
71046;SDS011;58703;48.978;8.982;2024-02-23T09:01:04;3.85;;;0.75;;
71046;SDS011;58703;48.978;8.982;2024-02-23T09:03:31;2.33;;;0.35;;
71046;SDS011;58703;48.978;8.982;2024-02-23T09:05:58;2.20;;;0.90;;
71046;SDS011;58703;48.978;8.982;2024-02-23T09:08:25;0.90;;;0.50;;
71046;SDS011;58703;48.978;8.982;2024-02-23T09:10:52;1.47;;;0.50;;
71046;SDS011;58703;48.978;8.982;2024-02-23T09:13:19;3.67;;;0.95;;
71046;SDS011;58703;48.978;8.982;2024-02-23T09:15:46;2.33;;;0.85;;
71046;SDS011;58703;48.978;8.982;2024-02-23T09:18:12;3.67;;;0.38;;
71046;SDS011;58703;48.978;8.982;2024-02-23T09:20:39;1.27;;;0.70;;
71046;SDS011;58703;48.978;8.982;2024-02-23T09:23:05;1.63;;;0.97;;
71046;SDS011;58703;48.978;8.982;2024-02-23T09:25:31;0.40;;;0.10;;
71046;SDS011;58703;48.978;8.982;2024-02-23T09:27:58;1.15;;;0.30;;
71046;SDS011;58703;48.978;8.982;2024-02-23T09:30:25;0.70;;;0.52;;
71046;SDS011;58703;48.978;8.982;2024-02-23T09:32:52;2.88;;;0.30;;
71046;SDS011;58703;48.978;8.982;2024-02-23T09:35:19;0.68;;;0.30;;
71046;SDS011;58703;48.978;8.982;2024-02-23T09:37:45;0.28;;;0.20;;
71046;SDS011;58703;48.978;8.982;2024-02-23T09:40:12;1.80;;;0.77;;
71046;SDS011;58703;48.978;8.982;2024-02-23T09:42:42;2.83;;;0.47;;
71046;SDS011;58703;48.978;8.982;2024-02-23T09:45:07;3.28;;;0.43;;
71046;SDS011;58703;48.978;8.982;2024-02-23T09:47:36;1.00;;;0.20;;
71046;SDS011;58703;48.978;8.982;2024-02-23T09:50:05;0.93;;;0.08;;
71046;SDS011;58703;48.978;8.982;2024-02-23T09:52:32;2.05;;;0.50;;
71046;SDS011;58703;48.978;8.982;2024-02-23T09:54:58;1.35;;;0.57;;
71046;SDS011;58703;48.978;8.982;2024-02-23T09:57:25;2.42;;;0.32;;
71046;SDS011;58703;48.978;8.982;2024-02-23T09:59:55;1.95;;;0.32;;
71046;SDS011;58703;48.978;8.982;2024-02-23T10:02:22;0.73;;;0.20;;
71046;SDS011;58703;48.978;8.982;2024-02-23T10:04:48;2.55;;;0.50;;
71046;SDS011;58703;48.978;8.982;2024-02-23T10:07:18;1.73;;;0.50;;
71046;SDS011;58703;48.978;8.982;2024-02-23T10:09:45;2.85;;;0.30;;
71046;SDS011;58703;48.978;8.982;2024-02-23T10:12:15;4.07;;;0.47;;
71046;SDS011;58703;48.978;8.982;2024-02-23T10:14:42;2.40;;;0.20;;
71046;SDS011;58703;48.978;8.982;2024-02-23T10:17:09;0.63;;;0.20;;
71046;SDS011;58703;48.978;8.982;2024-02-23T10:19:36;3.58;;;0.57;;
71046;SDS011;58703;48.978;8.982;2024-02-23T10:22:05;2.55;;;0.45;;
71046;SDS011;58703;48.978;8.982;2024-02-23T10:24:33;1.10;;;0.30;;
71046;SDS011;58703;48.978;8.982;2024-02-23T10:27:00;0.63;;;0.43;;
71046;SDS011;58703;48.978;8.982;2024-02-23T10:29:27;1.75;;;0.28;;
71046;SDS011;58703;48.978;8.982;2024-02-23T10:31:54;3.40;;;0.65;;
71046;SDS011;58703;48.978;8.982;2024-02-23T10:34:24;3.13;;;0.38;;
71046;SDS011;58703;48.978;8.982;2024-02-23T10:36:53;1.80;;;0.43;;
71046;SDS011;58703;48.978;8.982;2024-02-23T10:39:19;1.00;;;0.50;;
71046;SDS011;58703;48.978;8.982;2024-02-23T10:42:02;4.22;;;0.55;;
71046;SDS011;58703;48.978;8.982;2024-02-23T10:44:32;1.83;;;0.40;;
71046;SDS011;58703;48.978;8.982;2024-02-23T10:46:59;4.32;;;0.40;;
71046;SDS011;58703;48.978;8.982;2024-02-23T10:49:47;3.20;;;0.32;;
71046;SDS011;58703;48.978;8.982;2024-02-23T10:52:13;1.77;;;0.30;;
71046;SDS011;58703;48.978;8.982;2024-02-23T10:54:41;3.63;;;0.60;;
71046;SDS011;58703;48.978;8.982;2024-02-23T10:57:11;2.78;;;0.68;;
71046;SDS011;58703;48.978;8.982;2024-02-23T10:59:41;2.92;;;0.40;;
71046;SDS011;58703;48.978;8.982;2024-02-23T11:02:08;1.92;;;0.28;;
71046;SDS011;58703;48.978;8.982;2024-02-23T11:04:38;2.03;;;0.37;;
71046;SDS011;58703;48.978;8.982;2024-02-23T11:07:03;4.72;;;0.25;;
71046;SDS011;58703;48.978;8.982;2024-02-23T11:09:38;1.67;;;0.20;;
71046;SDS011;58703;48.978;8.982;2024-02-23T11:12:06;3.25;;;0.75;;
71046;SDS011;58703;48.978;8.982;2024-02-23T11:14:38;2.67;;;0.50;;
71046;SDS011;58703;48.978;8.982;2024-02-23T11:17:04;3.13;;;0.43;;
71046;SDS011;58703;48.978;8.982;2024-02-23T11:19:34;1.70;;;0.40;;
71046;SDS011;58703;48.978;8.982;2024-02-23T11:22:04;1.67;;;0.60;;
71046;SDS011;58703;48.978;8.982;2024-02-23T11:24:31;2.72;;;0.40;;
71046;SDS011;58703;48.978;8.982;2024-02-23T11:26:57;2.45;;;0.30;;
71046;SDS011;58703;48.978;8.982;2024-02-23T11:29:29;1.63;;;0.43;;
71046;SDS011;58703;48.978;8.982;2024-02-23T11:31:56;3.50;;;0.63;;
71046;SDS011;58703;48.978;8.982;2024-02-23T11:34:26;2.92;;;0.40;;
71046;SDS011;58703;48.978;8.982;2024-02-23T11:36:52;3.70;;;0.75;;
71046;SDS011;58703;48.978;8.982;2024-02-23T11:39:20;2.45;;;0.60;;
71046;SDS011;58703;48.978;8.982;2024-02-23T11:41:50;1.07;;;0.40;;
71046;SDS011;58703;48.978;8.982;2024-02-23T11:44:17;3.03;;;0.60;;
71046;SDS011;58703;48.978;8.982;2024-02-23T11:46:44;3.13;;;0.65;;
71046;SDS011;58703;48.978;8.982;2024-02-23T11:49:14;3.58;;;0.40;;
71046;SDS011;58703;48.978;8.982;2024-02-23T11:51:42;2.40;;;0.47;;
71046;SDS011;58703;48.978;8.982;2024-02-23T11:54:11;2.97;;;0.33;;
71046;SDS011;58703;48.978;8.982;2024-02-23T11:56:38;1.70;;;0.40;;
71046;SDS011;58703;48.978;8.982;2024-02-23T11:59:07;2.33;;;0.30;;
71046;SDS011;58703;48.978;8.982;2024-02-23T12:01:34;2.00;;;0.43;;
71046;SDS011;58703;48.978;8.982;2024-02-23T12:04:00;0.55;;;0.40;;
71046;SDS011;58703;48.978;8.982;2024-02-23T12:06:28;2.00;;;0.63;;
71046;SDS011;58703;48.978;8.982;2024-02-23T12:08:56;0.50;;;0.50;;
71046;SDS011;58703;48.978;8.982;2024-02-23T12:11:23;2.00;;;0.20;;
71046;SDS011;58703;48.978;8.982;2024-02-23T12:13:51;3.20;;;0.20;;
71046;SDS011;58703;48.978;8.982;2024-02-23T12:16:18;0.90;;;0.40;;
71046;SDS011;58703;48.978;8.982;2024-02-23T12:18:51;1.27;;;0.38;;
71046;SDS011;58703;48.978;8.982;2024-02-23T12:21:18;2.20;;;0.55;;
71046;SDS011;58703;48.978;8.982;2024-02-23T12:23:48;1.50;;;0.47;;
71046;SDS011;58703;48.978;8.982;2024-02-23T12:26:16;1.55;;;0.57;;
71046;SDS011;58703;48.978;8.982;2024-02-23T12:28:44;3.28;;;0.20;;
71046;SDS011;58703;48.978;8.982;2024-02-23T12:31:14;0.85;;;0.28;;
71046;SDS011;58703;48.978;8.982;2024-02-23T12:33:41;1.50;;;0.28;;
71046;SDS011;58703;48.978;8.982;2024-02-23T12:36:07;3.93;;;0.90;;
71046;SDS011;58703;48.978;8.982;2024-02-23T12:38:36;1.85;;;0.80;;
71046;SDS011;58703;48.978;8.982;2024-02-23T12:41:04;5.60;;;0.60;;
71046;SDS011;58703;48.978;8.982;2024-02-23T12:43:30;3.03;;;0.45;;
71046;SDS011;58703;48.978;8.982;2024-02-23T12:46:02;2.67;;;0.38;;
71046;SDS011;58703;48.978;8.982;2024-02-23T12:48:30;3.20;;;0.50;;
71046;SDS011;58703;48.978;8.982;2024-02-23T12:50:57;2.10;;;0.45;;
71046;SDS011;58703;48.978;8.982;2024-02-23T12:53:38;5.72;;;0.77;;
71046;SDS011;58703;48.978;8.982;2024-02-23T12:56:10;3.80;;;0.57;;
71046;SDS011;58703;48.978;8.982;2024-02-23T12:58:38;1.15;;;0.80;;
71046;SDS011;58703;48.978;8.982;2024-02-23T13:01:10;1.57;;;0.50;;
71046;SDS011;58703;48.978;8.982;2024-02-23T13:03:37;1.27;;;0.40;;
71046;SDS011;58703;48.978;8.982;2024-02-23T13:06:05;1.15;;;0.60;;
71046;SDS011;58703;48.978;8.982;2024-02-23T13:08:36;1.80;;;0.10;;
71046;SDS011;58703;48.978;8.982;2024-02-23T13:11:05;3.33;;;0.65;;
71046;SDS011;58703;48.978;8.982;2024-02-23T13:13:32;1.80;;;0.30;;
71046;SDS011;58703;48.978;8.982;2024-02-23T13:16:00;4.35;;;0.80;;
71046;SDS011;58703;48.978;8.982;2024-02-23T13:18:26;3.13;;;0.38;;
71046;SDS011;58703;48.978;8.982;2024-02-23T13:20:52;1.63;;;0.40;;
71046;SDS011;58703;48.978;8.982;2024-02-23T13:23:20;2.60;;;0.17;;
71046;SDS011;58703;48.978;8.982;2024-02-23T13:25:46;2.20;;;0.60;;
71046;SDS011;58703;48.978;8.982;2024-02-23T13:28:13;3.35;;;0.50;;
71046;SDS011;58703;48.978;8.982;2024-02-23T13:30:40;3.20;;;0.50;;
71046;SDS011;58703;48.978;8.982;2024-02-23T13:33:07;3.42;;;0.40;;
71046;SDS011;58703;48.978;8.982;2024-02-23T13:35:37;2.15;;;0.40;;
71046;SDS011;58703;48.978;8.982;2024-02-23T13:38:06;2.40;;;0.80;;
71046;SDS011;58703;48.978;8.982;2024-02-23T13:40:35;3.03;;;0.30;;
71046;SDS011;58703;48.978;8.982;2024-02-23T13:43:02;2.60;;;0.52;;
71046;SDS011;58703;48.978;8.982;2024-02-23T13:45:28;2.45;;;0.60;;
71046;SDS011;58703;48.978;8.982;2024-02-23T13:47:55;3.88;;;1.02;;
71046;SDS011;58703;48.978;8.982;2024-02-23T13:50:24;2.97;;;0.30;;
71046;SDS011;58703;48.978;8.982;2024-02-23T13:52:50;2.72;;;0.40;;
71046;SDS011;58703;48.978;8.982;2024-02-23T13:55:17;2.38;;;0.57;;
71046;SDS011;58703;48.978;8.982;2024-02-23T13:57:50;8.05;;;0.80;;
71046;SDS011;58703;48.978;8.982;2024-02-23T14:00:17;2.65;;;0.20;;
71046;SDS011;58703;48.978;8.982;2024-02-23T14:02:45;2.70;;;0.30;;
71046;SDS011;58703;48.978;8.982;2024-02-23T14:05:11;1.50;;;0.28;;
71046;SDS011;58703;48.978;8.982;2024-02-23T14:07:39;1.35;;;0.30;;
71046;SDS011;58703;48.978;8.982;2024-02-23T14:10:06;3.72;;;0.82;;
71046;SDS011;58703;48.978;8.982;2024-02-23T14:12:34;5.40;;;0.80;;
71046;SDS011;58703;48.978;8.982;2024-02-23T14:15:03;1.73;;;0.90;;
71046;SDS011;58703;48.978;8.982;2024-02-23T14:17:33;2.35;;;0.63;;
71046;SDS011;58703;48.978;8.982;2024-02-23T14:20:00;3.70;;;0.60;;
71046;SDS011;58703;48.978;8.982;2024-02-23T14:22:27;2.65;;;0.50;;
71046;SDS011;58703;48.978;8.982;2024-02-23T14:24:55;2.05;;;0.60;;
71046;SDS011;58703;48.978;8.982;2024-02-23T14:27:22;2.42;;;0.68;;
71046;SDS011;58703;48.978;8.982;2024-02-23T14:29:50;3.13;;;0.75;;
71046;SDS011;58703;48.978;8.982;2024-02-23T14:32:17;2.17;;;0.20;;
71046;SDS011;58703;48.978;8.982;2024-02-23T14:34:44;1.63;;;0.32;;
71046;SDS011;58703;48.978;8.982;2024-02-23T14:37:11;3.17;;;0.70;;
71046;SDS011;58703;48.978;8.982;2024-02-23T14:39:38;5.80;;;0.73;;
71046;SDS011;58703;48.978;8.982;2024-02-23T14:42:05;2.80;;;0.50;;
71046;SDS011;58703;48.978;8.982;2024-02-23T14:44:33;3.08;;;0.63;;
71046;SDS011;58703;48.978;8.982;2024-02-23T14:47:03;3.25;;;0.52;;
71046;SDS011;58703;48.978;8.982;2024-02-23T14:49:32;5.07;;;0.50;;
71046;SDS011;58703;48.978;8.982;2024-02-23T14:51:59;1.38;;;0.55;;
71046;SDS011;58703;48.978;8.982;2024-02-23T14:54:26;8.68;;;1.20;;
71046;SDS011;58703;48.978;8.982;2024-02-23T14:56:56;5.90;;;0.50;;
71046;SDS011;58703;48.978;8.982;2024-02-23T14:59:23;5.60;;;0.70;;
71046;SDS011;58703;48.978;8.982;2024-02-23T15:01:49;3.35;;;0.88;;
71046;SDS011;58703;48.978;8.982;2024-02-23T15:04:15;1.80;;;0.35;;
71046;SDS011;58703;48.978;8.982;2024-02-23T15:06:42;2.70;;;0.68;;
71046;SDS011;58703;48.978;8.982;2024-02-23T15:09:08;2.38;;;0.40;;
71046;SDS011;58703;48.978;8.982;2024-02-23T15:11:37;2.20;;;0.73;;
71046;SDS011;58703;48.978;8.982;2024-02-23T15:14:04;2.70;;;1.20;;
71046;SDS011;58703;48.978;8.982;2024-02-23T15:16:30;3.77;;;0.87;;
71046;SDS011;58703;48.978;8.982;2024-02-23T15:18:57;4.82;;;0.93;;
71046;SDS011;58703;48.978;8.982;2024-02-23T15:21:26;3.70;;;0.63;;
71046;SDS011;58703;48.978;8.982;2024-02-23T15:23:55;7.60;;;0.57;;
71046;SDS011;58703;48.978;8.982;2024-02-23T15:26:23;2.73;;;0.60;;
71046;SDS011;58703;48.978;8.982;2024-02-23T15:28:50;1.33;;;0.60;;
71046;SDS011;58703;48.978;8.982;2024-02-23T15:31:20;4.05;;;0.82;;
71046;SDS011;58703;48.978;8.982;2024-02-23T15:33:49;1.52;;;0.60;;
71046;SDS011;58703;48.978;8.982;2024-02-23T15:36:16;6.10;;;1.10;;
71046;SDS011;58703;48.978;8.982;2024-02-23T15:38:43;3.37;;;0.40;;
71046;SDS011;58703;48.978;8.982;2024-02-23T15:41:10;3.45;;;0.47;;
71046;SDS011;58703;48.978;8.982;2024-02-23T15:43:36;2.92;;;0.70;;
71046;SDS011;58703;48.978;8.982;2024-02-23T15:46:04;6.90;;;0.88;;
71046;SDS011;58703;48.978;8.982;2024-02-23T15:48:31;2.65;;;0.77;;
71046;SDS011;58703;48.978;8.982;2024-02-23T15:50:58;3.33;;;0.73;;
71046;SDS011;58703;48.978;8.982;2024-02-23T15:53:25;2.78;;;0.90;;
71046;SDS011;58703;48.978;8.982;2024-02-23T15:55:51;4.43;;;0.73;;
71046;SDS011;58703;48.978;8.982;2024-02-23T15:58:18;2.10;;;0.40;;
71046;SDS011;58703;48.978;8.982;2024-02-23T16:00:47;3.97;;;0.70;;
71046;SDS011;58703;48.978;8.982;2024-02-23T16:03:14;6.03;;;0.40;;
71046;SDS011;58703;48.978;8.982;2024-02-23T16:05:43;2.33;;;0.50;;
71046;SDS011;58703;48.978;8.982;2024-02-23T16:08:11;3.40;;;0.60;;
71046;SDS011;58703;48.978;8.982;2024-02-23T16:10:38;1.55;;;0.22;;
71046;SDS011;58703;48.978;8.982;2024-02-23T16:13:11;4.03;;;0.30;;
71046;SDS011;58703;48.978;8.982;2024-02-23T16:15:38;1.17;;;0.10;;
71046;SDS011;58703;48.978;8.982;2024-02-23T16:18:05;2.47;;;0.55;;
71046;SDS011;58703;48.978;8.982;2024-02-23T16:20:34;4.30;;;0.50;;
71046;SDS011;58703;48.978;8.982;2024-02-23T16:23:00;3.15;;;0.68;;
71046;SDS011;58703;48.978;8.982;2024-02-23T16:25:29;2.42;;;0.52;;
71046;SDS011;58703;48.978;8.982;2024-02-23T16:27:55;2.17;;;0.33;;
71046;SDS011;58703;48.978;8.982;2024-02-23T16:30:21;2.75;;;0.52;;
71046;SDS011;58703;48.978;8.982;2024-02-23T16:32:48;4.85;;;0.90;;
71046;SDS011;58703;48.978;8.982;2024-02-23T16:35:16;4.57;;;0.90;;
71046;SDS011;58703;48.978;8.982;2024-02-23T16:37:45;7.10;;;1.83;;
71046;SDS011;58703;48.978;8.982;2024-02-23T16:40:22;9.43;;;1.85;;
71046;SDS011;58703;48.978;8.982;2024-02-23T16:42:53;18.45;;;6.25;;
71046;SDS011;58703;48.978;8.982;2024-02-23T16:45:22;28.85;;;12.63;;
71046;SDS011;58703;48.978;8.982;2024-02-23T16:47:50;8.30;;;3.33;;
71046;SDS011;58703;48.978;8.982;2024-02-23T16:50:17;10.35;;;3.30;;
71046;SDS011;58703;48.978;8.982;2024-02-23T16:52:46;4.90;;;1.45;;
71046;SDS011;58703;48.978;8.982;2024-02-23T16:55:15;4.97;;;2.08;;
71046;SDS011;58703;48.978;8.982;2024-02-23T16:57:42;8.60;;;1.70;;
71046;SDS011;58703;48.978;8.982;2024-02-23T17:00:10;5.00;;;1.90;;
71046;SDS011;58703;48.978;8.982;2024-02-23T17:02:37;5.65;;;1.40;;
71046;SDS011;58703;48.978;8.982;2024-02-23T17:05:05;7.07;;;2.25;;
71046;SDS011;58703;48.978;8.982;2024-02-23T17:07:32;6.95;;;4.95;;
71046;SDS011;58703;48.978;8.982;2024-02-23T17:09:59;7.80;;;2.30;;
71046;SDS011;58703;48.978;8.982;2024-02-23T17:12:27;6.67;;;1.97;;
71046;SDS011;58703;48.978;8.982;2024-02-23T17:14:54;9.90;;;3.83;;
71046;SDS011;58703;48.978;8.982;2024-02-23T17:17:21;8.23;;;2.88;;
71046;SDS011;58703;48.978;8.982;2024-02-23T17:19:48;9.88;;;3.90;;
71046;SDS011;58703;48.978;8.982;2024-02-23T17:22:15;6.72;;;3.08;;
71046;SDS011;58703;48.978;8.982;2024-02-23T17:24:40;13.77;;;5.13;;
71046;SDS011;58703;48.978;8.982;2024-02-23T17:27:07;9.30;;;4.75;;
71046;SDS011;58703;48.978;8.982;2024-02-23T17:29:35;6.80;;;3.63;;
71046;SDS011;58703;48.978;8.982;2024-02-23T17:32:01;8.73;;;3.37;;
71046;SDS011;58703;48.978;8.982;2024-02-23T17:34:28;32.58;;;19.83;;
71046;SDS011;58703;48.978;8.982;2024-02-23T17:36:56;17.95;;;10.98;;
71046;SDS011;58703;48.978;8.982;2024-02-23T17:39:22;18.35;;;10.13;;
71046;SDS011;58703;48.978;8.982;2024-02-23T17:41:50;21.55;;;12.85;;
71046;SDS011;58703;48.978;8.982;2024-02-23T17:44:16;11.20;;;5.60;;
71046;SDS011;58703;48.978;8.982;2024-02-23T17:46:44;17.20;;;11.07;;
71046;SDS011;58703;48.978;8.982;2024-02-23T17:49:14;5.88;;;3.00;;
71046;SDS011;58703;48.978;8.982;2024-02-23T17:51:41;10.25;;;3.25;;
71046;SDS011;58703;48.978;8.982;2024-02-23T17:54:08;9.25;;;3.70;;
71046;SDS011;58703;48.978;8.982;2024-02-23T17:56:34;9.63;;;4.70;;
71046;SDS011;58703;48.978;8.982;2024-02-23T17:58:59;8.00;;;4.80;;
71046;SDS011;58703;48.978;8.982;2024-02-23T18:01:27;12.60;;;6.55;;
71046;SDS011;58703;48.978;8.982;2024-02-23T18:03:55;14.02;;;5.95;;
71046;SDS011;58703;48.978;8.982;2024-02-23T18:06:22;17.55;;;7.75;;
71046;SDS011;58703;48.978;8.982;2024-02-23T18:08:50;23.77;;;9.93;;
71046;SDS011;58703;48.978;8.982;2024-02-23T18:11:16;21.30;;;8.88;;
71046;SDS011;58703;48.978;8.982;2024-02-23T18:13:43;18.10;;;7.90;;
71046;SDS011;58703;48.978;8.982;2024-02-23T18:16:09;13.88;;;6.65;;
71046;SDS011;58703;48.978;8.982;2024-02-23T18:18:40;16.45;;;5.90;;